首页
METAR-TAF:

METAR-TAF

机场 :

普尔曼-莫斯科区域机场

普尔曼 / 莫斯科, 华盛顿, 美国

纬度: 46-44-38N, 经度: 117-06-35W, 海拔: 779米

当前天气观测

该预报发布于17分钟前的21:53 UTC
风速7节,风向
温度 2°C
湿度 93%
气压 1017 hPa
能見度: 14.5公里
多云层高于2100英尺
多云层高于3300英尺
阴天层高于4900英尺

METAR: KPUW 112153Z AUTO 08007KT 9SM BKN021 BKN033 OVC049 02/01 A3004 RMK AO2 SLP194 T00170006

时间: 14:10 (22:10 UTC)

预报

该预报发布于1小时和5分钟前的21:05 UTC
预报有效从11日的 21点(UTC)到 12日的 18点(UTC)
风速4节,风向多变
能見度: 10公里
阴天层高于2600英尺
短暂存在
从 11日的 21点(UTC)到 11日的 24点(UTC)
能見度: 4.8公里
阴天层高于2000英尺
轻雾
从 12日的 0200点(UTC)
风速6节,风向东转东南
能見度: 9.7公里
散云层高于800英尺
阴天层高于1400英尺
轻雾, 附近有阵雨
从 12日的 0600点(UTC)
风速8节,风向东转东南
能見度: 9.7公里
多云层高于800英尺
阴天层高于1400英尺
小雨, 轻雾
从 12日的 1200点(UTC)
风速15节,风向西南,有时为24节阵风
能見度: 9.7公里
阴天层高于1400英尺
小雨, 轻雾

TAF: KPUW 112105Z 1121/1218 VRB04KT P6SM OVC026 TEMPO 1121/1124 3SM BR OVC020 FM120200 12006KT 6SM BR VCSH SCT008 OVC014 FM120600 12008KT 6SM -RA BR BKN008 OVC014 FM121200 23015G24KT 6SM -RA BR OVC014

超过4000个机场的气象观测和天气预报(METAR&TAF报告)。

可查询的气象台以黄色和红色小点在地图上表示。

将鼠标移到小点上方,可查看气象台名称。

然后点击查看天气观测和预报。

如需切换地图:点击带黑十字的绿色按钮放大地图;点击带横线的绿色按钮缩小地图;或者点击绿色箭头查看邻近地区的地图。


METAR-TAF: